sensor_id;sensor_type;location;lat;lon;timestamp;P1;P2;P0
64861;PMS5003;62652;42.274;-71.436;2023-06-14T00:00:00;13.03;11.80;7.03
64861;PMS5003;62652;42.274;-71.436;2023-06-14T00:01:00;12.13;11.60;8.30
64861;PMS5003;62652;42.274;-71.436;2023-06-14T00:02:00;14.00;12.43;7.23
64861;PMS5003;62652;42.274;-71.436;2023-06-14T00:03:01;11.33;10.83;7.77
64861;PMS5003;62652;42.274;-71.436;2023-06-14T00:04:00;11.60;10.23;7.00
64861;PMS5003;62652;42.274;-71.436;2023-06-14T00:05:00;13.63;12.63;8.40
64861;PMS5003;62652;42.274;-71.436;2023-06-14T00:06:00;11.93;11.07;7.97
64861;PMS5003;62652;42.274;-71.436;2023-06-14T00:07:00;12.50;11.77;8.10
64861;PMS5003;62652;42.274;-71.436;2023-06-14T00:08:00;13.33;12.27;8.47
64861;PMS5003;62652;42.274;-71.436;2023-06-14T00:09:00;11.40;11.30;7.47
64861;PMS5003;62652;42.274;-71.436;2023-06-14T00:10:00;11.53;11.43;7.90
64861;PMS5003;62652;42.274;-71.436;2023-06-14T00:11:00;10.73;10.20;7.20
64861;PMS5003;62652;42.274;-71.436;2023-06-14T00:12:00;12.43;11.20;7.10
64861;PMS5003;62652;42.274;-71.436;2023-06-14T00:13:00;14.10;13.60;7.40
64861;PMS5003;62652;42.274;-71.436;2023-06-14T00:14:00;13.10;12.80;7.83
64861;PMS5003;62652;42.274;-71.436;2023-06-14T00:15:00;15.67;14.80;8.67
64861;PMS5003;62652;42.274;-71.436;2023-06-14T00:16:00;13.57;12.73;7.93
64861;PMS5003;62652;42.274;-71.436;2023-06-14T00:17:00;13.27;13.10;7.63
64861;PMS5003;62652;42.274;-71.436;2023-06-14T00:18:00;14.13;12.93;7.90
64861;PMS5003;62652;42.274;-71.436;2023-06-14T00:19:00;14.20;14.00;9.00
64861;PMS5003;62652;42.274;-71.436;2023-06-14T00:20:01;13.83;13.43;8.47
64861;PMS5003;62652;42.274;-71.436;2023-06-14T00:21:00;15.83;15.53;10.73
64861;PMS5003;62652;42.274;-71.436;2023-06-14T00:22:00;19.07;17.43;10.30
64861;PMS5003;62652;42.274;-71.436;2023-06-14T00:23:00;18.57;16.93;10.13
64861;PMS5003;62652;42.274;-71.436;2023-06-14T00:24:00;19.13;18.23;11.70
64861;PMS5003;62652;42.274;-71.436;2023-06-14T00:25:00;19.57;18.80;11.37
64861;PMS5003;62652;42.274;-71.436;2023-06-14T00:26:00;29.40;27.23;14.77
64861;PMS5003;62652;42.274;-71.436;2023-06-14T00:27:00;47.73;36.90;20.77
64861;PMS5003;62652;42.274;-71.436;2023-06-14T00:28:01;46.93;35.50;20.43
64861;PMS5003;62652;42.274;-71.436;2023-06-14T00:29:00;19.33;18.17;10.60
64861;PMS5003;62652;42.274;-71.436;2023-06-14T00:30:00;18.47;16.67;10.77
64861;PMS5003;62652;42.274;-71.436;2023-06-14T00:31:00;15.30;14.73;10.13
64861;PMS5003;62652;42.274;-71.436;2023-06-14T00:32:00;19.63;18.63;11.83
64861;PMS5003;62652;42.274;-71.436;2023-06-14T00:33:00;19.63;19.53;11.77
64861;PMS5003;62652;42.274;-71.436;2023-06-14T00:34:00;17.43;16.70;10.90
64861;PMS5003;62652;42.274;-71.436;2023-06-14T00:35:00;18.67;18.53;12.03
64861;PMS5003;62652;42.274;-71.436;2023-06-14T00:36:00;18.20;17.80;10.43
64861;PMS5003;62652;42.274;-71.436;2023-06-14T00:37:00;16.53;16.33;10.30
64861;PMS5003;62652;42.274;-71.436;2023-06-14T00:38:01;20.20;19.50;10.37
64861;PMS5003;62652;42.274;-71.436;2023-06-14T00:39:01;18.27;17.97;11.93
64861;PMS5003;62652;42.274;-71.436;2023-06-14T00:40:00;20.90;19.17;11.97
64861;PMS5003;62652;42.274;-71.436;2023-06-14T00:41:00;19.70;18.53;11.27
64861;PMS5003;62652;42.274;-71.436;2023-06-14T00:42:00;20.60;19.53;12.43
64861;PMS5003;62652;42.274;-71.436;2023-06-14T00:43:00;22.37;20.03;12.10
64861;PMS5003;62652;42.274;-71.436;2023-06-14T00:44:00;18.57;17.77;11.47
64861;PMS5003;62652;42.274;-71.436;2023-06-14T00:45:00;24.00;21.47;11.83
64861;PMS5003;62652;42.274;-71.436;2023-06-14T00:46:00;20.33;19.83;13.37
64861;PMS5003;62652;42.274;-71.436;2023-06-14T00:47:00;20.73;19.50;12.03
64861;PMS5003;62652;42.274;-71.436;2023-06-14T00:48:00;23.10;21.13;11.97
64861;PMS5003;62652;42.274;-71.436;2023-06-14T00:49:00;22.13;20.83;11.57
64861;PMS5003;62652;42.274;-71.436;2023-06-14T00:50:01;19.00;18.37;11.73
64861;PMS5003;62652;42.274;-71.436;2023-06-14T00:51:00;19.17;18.93;11.57
64861;PMS5003;62652;42.274;-71.436;2023-06-14T00:52:00;23.37;21.33;11.70
64861;PMS5003;62652;42.274;-71.436;2023-06-14T00:53:00;20.83;19.83;11.90
64861;PMS5003;62652;42.274;-71.436;2023-06-14T00:54:00;22.73;19.67;12.20
64861;PMS5003;62652;42.274;-71.436;2023-06-14T00:55:00;17.53;17.53;10.63
64861;PMS5003;62652;42.274;-71.436;2023-06-14T00:56:00;23.13;21.37;11.87
64861;PMS5003;62652;42.274;-71.436;2023-06-14T00:57:00;22.13;19.67;12.33
64861;PMS5003;62652;42.274;-71.436;2023-06-14T00:58:00;19.97;19.20;11.57
64861;PMS5003;62652;42.274;-71.436;2023-06-14T00:59:00;20.60;19.93;11.50
64861;PMS5003;62652;42.274;-71.436;2023-06-14T01:00:00;20.63;19.43;13.13
64861;PMS5003;62652;42.274;-71.436;2023-06-14T01:01:01;23.87;22.80;13.43
64861;PMS5003;62652;42.274;-71.436;2023-06-14T01:02:00;24.30;22.60;13.33
64861;PMS5003;62652;42.274;-71.436;2023-06-14T01:03:00;23.37;21.67;12.20
64861;PMS5003;62652;42.274;-71.436;2023-06-14T01:04:00;23.53;22.53;12.47
64861;PMS5003;62652;42.274;-71.436;2023-06-14T01:05:00;25.73;22.23;14.37
64861;PMS5003;62652;42.274;-71.436;2023-06-14T01:06:03;23.97;20.87;13.07
64861;PMS5003;62652;42.274;-71.436;2023-06-14T01:07:02;20.87;19.07;11.17
64861;PMS5003;62652;42.274;-71.436;2023-06-14T01:08:05;24.20;23.70;13.77
64861;PMS5003;62652;42.274;-71.436;2023-06-14T01:09:03;24.53;23.70;13.83
64861;PMS5003;62652;42.274;-71.436;2023-06-14T01:10:04;22.77;21.97;13.37
64861;PMS5003;62652;42.274;-71.436;2023-06-14T01:11:01;20.73;20.27;12.47
64861;PMS5003;62652;42.274;-71.436;2023-06-14T01:12:03;24.00;23.07;13.67
64861;PMS5003;62652;42.274;-71.436;2023-06-14T01:13:04;23.40;21.10;12.83
64861;PMS5003;62652;42.274;-71.436;2023-06-14T01:14:01;21.63;20.93;13.00
64861;PMS5003;62652;42.274;-71.436;2023-06-14T01:15:00;24.67;23.10;13.53
64861;PMS5003;62652;42.274;-71.436;2023-06-14T01:16:00;25.07;23.70;14.27
64861;PMS5003;62652;42.274;-71.436;2023-06-14T01:17:00;25.33;23.20;12.87
64861;PMS5003;62652;42.274;-71.436;2023-06-14T01:18:00;24.17;21.57;13.33
64861;PMS5003;62652;42.274;-71.436;2023-06-14T01:19:00;21.97;20.43;12.93
64861;PMS5003;62652;42.274;-71.436;2023-06-14T01:20:01;28.03;25.43;15.80
64861;PMS5003;62652;42.274;-71.436;2023-06-14T01:21:00;26.57;25.10;15.57
64861;PMS5003;62652;42.274;-71.436;2023-06-14T01:22:00;27.23;25.23;15.40
64861;PMS5003;62652;42.274;-71.436;2023-06-14T01:23:01;25.43;24.23;15.47
64861;PMS5003;62652;42.274;-71.436;2023-06-14T01:24:00;28.90;27.13;15.67
64861;PMS5003;62652;42.274;-71.436;2023-06-14T01:25:00;36.10;32.20;20.03
64861;PMS5003;62652;42.274;-71.436;2023-06-14T01:26:00;42.63;35.73;21.57
64861;PMS5003;62652;42.274;-71.436;2023-06-14T01:27:00;45.03;36.73;22.00
64861;PMS5003;62652;42.274;-71.436;2023-06-14T01:28:01;35.83;30.93;17.03
64861;PMS5003;62652;42.274;-71.436;2023-06-14T01:29:00;38.47;33.63;20.13
64861;PMS5003;62652;42.274;-71.436;2023-06-14T01:30:00;40.53;34.20;20.17
64861;PMS5003;62652;42.274;-71.436;2023-06-14T01:31:01;35.83;31.83;18.77
64861;PMS5003;62652;42.274;-71.436;2023-06-14T01:32:00;29.70;27.87;15.90
64861;PMS5003;62652;42.274;-71.436;2023-06-14T01:33:00;25.93;24.67;15.73
64861;PMS5003;62652;42.274;-71.436;2023-06-14T01:34:01;27.73;27.03;15.67
64861;PMS5003;62652;42.274;-71.436;2023-06-14T01:35:00;34.67;31.03;19.37
64861;PMS5003;62652;42.274;-71.436;2023-06-14T01:36:00;34.57;31.53;18.73
64861;PMS5003;62652;42.274;-71.436;2023-06-14T01:37:01;38.47;32.00;17.60
64861;PMS5003;62652;42.274;-71.436;2023-06-14T01:38:00;29.40;27.77;17.10
64861;PMS5003;62652;42.274;-71.436;2023-06-14T01:39:00;43.57;35.97;20.60
64861;PMS5003;62652;42.274;-71.436;2023-06-14T01:40:00;35.13;31.20;18.50
64861;PMS5003;62652;42.274;-71.436;2023-06-14T01:41:00;35.67;31.10;18.07
64861;PMS5003;62652;42.274;-71.436;2023-06-14T01:42:00;31.03;28.13;17.13
64861;PMS5003;62652;42.274;-71.436;2023-06-14T01:43:00;31.90;29.43;17.63
64861;PMS5003;62652;42.274;-71.436;2023-06-14T01:44:00;34.40;30.90;16.97
64861;PMS5003;62652;42.274;-71.436;2023-06-14T01:45:01;34.70;30.80;16.80
64861;PMS5003;62652;42.274;-71.436;2023-06-14T01:46:00;33.00;30.70;17.13
64861;PMS5003;62652;42.274;-71.436;2023-06-14T01:47:00;32.97;30.57;17.20
64861;PMS5003;62652;42.274;-71.436;2023-06-14T01:48:00;31.90;30.17;17.07
64861;PMS5003;62652;42.274;-71.436;2023-06-14T01:49:00;33.77;29.67;15.83
64861;PMS5003;62652;42.274;-71.436;2023-06-14T01:50:01;33.77;30.13;15.40
64861;PMS5003;62652;42.274;-71.436;2023-06-14T01:51:00;31.80;28.90;15.63
64861;PMS5003;62652;42.274;-71.436;2023-06-14T01:52:00;36.97;31.23;16.27
64861;PMS5003;62652;42.274;-71.436;2023-06-14T01:53:00;30.17;28.37;15.40
64861;PMS5003;62652;42.274;-71.436;2023-06-14T01:54:00;32.90;29.63;16.57
64861;PMS5003;62652;42.274;-71.436;2023-06-14T01:55:00;30.23;27.97;15.93
64861;PMS5003;62652;42.274;-71.436;2023-06-14T01:56:01;30.60;26.57;15.40
64861;PMS5003;62652;42.274;-71.436;2023-06-14T01:57:00;29.27;26.57;15.33
64861;PMS5003;62652;42.274;-71.436;2023-06-14T01:58:00;32.77;30.07;15.63
64861;PMS5003;62652;42.274;-71.436;2023-06-14T01:59:00;32.70;30.73;16.50
64861;PMS5003;62652;42.274;-71.436;2023-06-14T02:00:00;32.87;27.50;15.53
64861;PMS5003;62652;42.274;-71.436;2023-06-14T02:01:00;29.93;27.43;14.43
64861;PMS5003;62652;42.274;-71.436;2023-06-14T02:02:02;29.20;27.77;16.43
64861;PMS5003;62652;42.274;-71.436;2023-06-14T02:03:00;29.33;27.70;14.83
64861;PMS5003;62652;42.274;-71.436;2023-06-14T02:04:00;31.07;28.57;14.73
64861;PMS5003;62652;42.274;-71.436;2023-06-14T02:05:00;26.80;24.37;14.87
64861;PMS5003;62652;42.274;-71.436;2023-06-14T02:06:00;29.27;27.43;15.57
64861;PMS5003;62652;42.274;-71.436;2023-06-14T02:07:01;28.10;25.97;15.57
64861;PMS5003;62652;42.274;-71.436;2023-06-14T02:08:00;29.80;28.23;15.80
64861;PMS5003;62652;42.274;-71.436;2023-06-14T02:09:00;30.00;27.43;14.23
64861;PMS5003;62652;42.274;-71.436;2023-06-14T02:10:00;31.97;27.43;15.40
64861;PMS5003;62652;42.274;-71.436;2023-06-14T02:11:00;27.07;25.00;15.40
64861;PMS5003;62652;42.274;-71.436;2023-06-14T02:12:00;31.60;28.03;14.90
64861;PMS5003;62652;42.274;-71.436;2023-06-14T02:13:00;31.43;29.40;16.20
64861;PMS5003;62652;42.274;-71.436;2023-06-14T02:14:00;33.33;29.50;16.07
64861;PMS5003;62652;42.274;-71.436;2023-06-14T02:15:00;31.03;26.90;16.10
64861;PMS5003;62652;42.274;-71.436;2023-06-14T02:16:00;30.00;26.77;14.77
64861;PMS5003;62652;42.274;-71.436;2023-06-14T02:17:00;31.53;28.10;14.23
64861;PMS5003;62652;42.274;-71.436;2023-06-14T02:18:01;31.47;28.53;15.20
64861;PMS5003;62652;42.274;-71.436;2023-06-14T02:19:00;27.50;24.90;14.43
64861;PMS5003;62652;42.274;-71.436;2023-06-14T02:20:00;29.93;26.40;15.03
64861;PMS5003;62652;42.274;-71.436;2023-06-14T02:21:00;27.87;26.33;14.30
64861;PMS5003;62652;42.274;-71.436;2023-06-14T02:22:00;28.77;26.00;14.57
64861;PMS5003;62652;42.274;-71.436;2023-06-14T02:23:00;28.03;26.30;16.00
64861;PMS5003;62652;42.274;-71.436;2023-06-14T02:24:00;34.37;30.03;16.80
64861;PMS5003;62652;42.274;-71.436;2023-06-14T02:25:00;29.83;27.63;15.27
64861;PMS5003;62652;42.274;-71.436;2023-06-14T02:26:00;31.80;28.73;15.70
64861;PMS5003;62652;42.274;-71.436;2023-06-14T02:27:00;31.20;26.50;16.03
64861;PMS5003;62652;42.274;-71.436;2023-06-14T02:28:00;32.10;29.23;15.90
64861;PMS5003;62652;42.274;-71.436;2023-06-14T02:29:01;32.57;29.77;15.27
64861;PMS5003;62652;42.274;-71.436;2023-06-14T02:30:00;30.27;28.07;15.63
64861;PMS5003;62652;42.274;-71.436;2023-06-14T02:31:00;28.87;26.93;15.23
64861;PMS5003;62652;42.274;-71.436;2023-06-14T02:32:00;28.40;24.40;13.93
64861;PMS5003;62652;42.274;-71.436;2023-06-14T02:33:00;27.80;26.00;14.67
64861;PMS5003;62652;42.274;-71.436;2023-06-14T02:34:00;27.77;26.03;15.80
64861;PMS5003;62652;42.274;-71.436;2023-06-14T02:35:00;32.23;28.87;15.70
64861;PMS5003;62652;42.274;-71.436;2023-06-14T02:36:01;29.93;27.53;15.80
64861;PMS5003;62652;42.274;-71.436;2023-06-14T02:37:00;28.80;25.37;13.83
64861;PMS5003;62652;42.274;-71.436;2023-06-14T02:38:00;33.43;28.63;15.33
64861;PMS5003;62652;42.274;-71.436;2023-06-14T02:39:00;31.90;27.90;14.43
64861;PMS5003;62652;42.274;-71.436;2023-06-14T02:40:01;30.30;26.50;15.07
64861;PMS5003;62652;42.274;-71.436;2023-06-14T02:41:00;28.60;25.63;13.97
64861;PMS5003;62652;42.274;-71.436;2023-06-14T02:42:00;35.00;26.93;15.70
64861;PMS5003;62652;42.274;-71.436;2023-06-14T02:43:00;27.97;25.43;13.47
64861;PMS5003;62652;42.274;-71.436;2023-06-14T02:44:00;27.63;25.83;13.33
64861;PMS5003;62652;42.274;-71.436;2023-06-14T02:45:00;28.00;25.70;14.13
64861;PMS5003;62652;42.274;-71.436;2023-06-14T02:46:00;29.17;26.80;15.23
64861;PMS5003;62652;42.274;-71.436;2023-06-14T02:47:00;31.53;26.93;14.37
64861;PMS5003;62652;42.274;-71.436;2023-06-14T02:48:00;22.57;21.77;13.50
64861;PMS5003;62652;42.274;-71.436;2023-06-14T02:49:00;30.30;29.10;14.83
64861;PMS5003;62652;42.274;-71.436;2023-06-14T02:50:00;30.30;28.30;15.47
64861;PMS5003;62652;42.274;-71.436;2023-06-14T02:51:01;26.47;23.33;13.13
64861;PMS5003;62652;42.274;-71.436;2023-06-14T02:52:00;30.00;26.47;13.20
64861;PMS5003;62652;42.274;-71.436;2023-06-14T02:53:00;27.13;25.13;13.17
64861;PMS5003;62652;42.274;-71.436;2023-06-14T02:54:00;29.57;24.07;14.43
64861;PMS5003;62652;42.274;-71.436;2023-06-14T02:55:00;29.23;27.20;14.20
64861;PMS5003;62652;42.274;-71.436;2023-06-14T02:56:00;29.70;27.37;15.00
64861;PMS5003;62652;42.274;-71.436;2023-06-14T02:57:01;27.30;25.70;13.80
64861;PMS5003;62652;42.274;-71.436;2023-06-14T02:58:00;30.37;27.87;14.60
64861;PMS5003;62652;42.274;-71.436;2023-06-14T02:59:00;28.47;26.20;15.20
64861;PMS5003;62652;42.274;-71.436;2023-06-14T03:00:00;25.73;23.87;14.07
64861;PMS5003;62652;42.274;-71.436;2023-06-14T03:01:00;29.50;26.83;14.27
64861;PMS5003;62652;42.274;-71.436;2023-06-14T03:02:01;28.07;25.47;14.00
64861;PMS5003;62652;42.274;-71.436;2023-06-14T03:03:00;26.40;24.37;14.53
64861;PMS5003;62652;42.274;-71.436;2023-06-14T03:04:00;28.67;27.07;15.23
64861;PMS5003;62652;42.274;-71.436;2023-06-14T03:05:00;27.43;25.60;14.90
64861;PMS5003;62652;42.274;-71.436;2023-06-14T03:06:00;29.40;27.13;15.27
64861;PMS5003;62652;42.274;-71.436;2023-06-14T03:07:00;31.13;28.10;14.70
64861;PMS5003;62652;42.274;-71.436;2023-06-14T03:08:00;28.93;25.03;14.60
64861;PMS5003;62652;42.274;-71.436;2023-06-14T03:09:00;28.73;24.23;14.20
64861;PMS5003;62652;42.274;-71.436;2023-06-14T03:10:00;30.77;27.33;13.20
64861;PMS5003;62652;42.274;-71.436;2023-06-14T03:11:00;27.20;25.20;15.77
64861;PMS5003;62652;42.274;-71.436;2023-06-14T03:12:00;25.73;24.37;14.63
64861;PMS5003;62652;42.274;-71.436;2023-06-14T03:13:00;32.17;27.00;14.83
64861;PMS5003;62652;42.274;-71.436;2023-06-14T03:14:00;30.63;26.83;14.07
64861;PMS5003;62652;42.274;-71.436;2023-06-14T03:15:00;31.63;27.67;14.73
64861;PMS5003;62652;42.274;-71.436;2023-06-14T03:16:00;27.53;25.70;13.97
64861;PMS5003;62652;42.274;-71.436;2023-06-14T03:17:00;27.07;25.10;13.30
64861;PMS5003;62652;42.274;-71.436;2023-06-14T03:18:00;27.63;24.90;13.73
64861;PMS5003;62652;42.274;-71.436;2023-06-14T03:19:00;30.73;26.63;13.57
64861;PMS5003;62652;42.274;-71.436;2023-06-14T03:20:00;26.93;24.03;13.67
64861;PMS5003;62652;42.274;-71.436;2023-06-14T03:21:00;27.87;25.03;14.00
64861;PMS5003;62652;42.274;-71.436;2023-06-14T03:22:00;27.27;24.83;14.23
64861;PMS5003;62652;42.274;-71.436;2023-06-14T03:23:01;29.23;25.70;15.77
64861;PMS5003;62652;42.274;-71.436;2023-06-14T03:24:01;29.27;25.87;13.77
64861;PMS5003;62652;42.274;-71.436;2023-06-14T03:25:00;26.13;24.40;12.73
64861;PMS5003;62652;42.274;-71.436;2023-06-14T03:26:00;27.97;25.23;13.50
64861;PMS5003;62652;42.274;-71.436;2023-06-14T03:27:00;27.67;22.40;12.97
64861;PMS5003;62652;42.274;-71.436;2023-06-14T03:28:00;27.73;25.67;13.60
64861;PMS5003;62652;42.274;-71.436;2023-06-14T03:29:00;24.17;21.07;12.00
64861;PMS5003;62652;42.274;-71.436;2023-06-14T03:30:00;29.07;26.87;14.17
64861;PMS5003;62652;42.274;-71.436;2023-06-14T03:31:00;25.93;24.00;13.23
64861;PMS5003;62652;42.274;-71.436;2023-06-14T03:32:01;24.73;22.73;13.67
64861;PMS5003;62652;42.274;-71.436;2023-06-14T03:33:00;26.77;22.73;12.07
64861;PMS5003;62652;42.274;-71.436;2023-06-14T03:34:00;26.27;22.33;12.47
64861;PMS5003;62652;42.274;-71.436;2023-06-14T03:35:01;27.20;24.23;12.47
64861;PMS5003;62652;42.274;-71.436;2023-06-14T03:36:01;26.03;23.50;14.33
64861;PMS5003;62652;42.274;-71.436;2023-06-14T03:37:00;26.07;22.90;13.67
64861;PMS5003;62652;42.274;-71.436;2023-06-14T03:38:00;25.23;22.43;11.93
64861;PMS5003;62652;42.274;-71.436;2023-06-14T03:39:00;26.93;24.50;13.10
64861;PMS5003;62652;42.274;-71.436;2023-06-14T03:40:00;21.97;21.43;12.73
64861;PMS5003;62652;42.274;-71.436;2023-06-14T03:41:00;30.40;25.07;13.87
64861;PMS5003;62652;42.274;-71.436;2023-06-14T03:42:00;25.40;23.97;12.67
64861;PMS5003;62652;42.274;-71.436;2023-06-14T03:43:00;28.60;22.43;13.13
64861;PMS5003;62652;42.274;-71.436;2023-06-14T03:44:00;25.47;23.80;12.53
64861;PMS5003;62652;42.274;-71.436;2023-06-14T03:45:00;28.40;24.13;12.73
64861;PMS5003;62652;42.274;-71.436;2023-06-14T03:46:01;23.67;20.53;12.40
64861;PMS5003;62652;42.274;-71.436;2023-06-14T03:47:00;25.20;22.47;13.53
64861;PMS5003;62652;42.274;-71.436;2023-06-14T03:48:00;26.13;22.97;12.27
64861;PMS5003;62652;42.274;-71.436;2023-06-14T03:49:00;22.93;21.70;12.80
64861;PMS5003;62652;42.274;-71.436;2023-06-14T03:50:00;23.10;21.47;12.43
64861;PMS5003;62652;42.274;-71.436;2023-06-14T03:51:00;21.07;18.97;10.00
64861;PMS5003;62652;42.274;-71.436;2023-06-14T03:52:00;22.40;21.37;13.37
64861;PMS5003;62652;42.274;-71.436;2023-06-14T03:53:00;22.43;20.97;11.33
64861;PMS5003;62652;42.274;-71.436;2023-06-14T03:54:00;20.33;19.70;11.17
64861;PMS5003;62652;42.274;-71.436;2023-06-14T03:55:00;23.33;21.07;12.10
64861;PMS5003;62652;42.274;-71.436;2023-06-14T03:56:00;20.23;18.83;11.27
64861;PMS5003;62652;42.274;-71.436;2023-06-14T03:57:01;22.47;21.67;11.43
64861;PMS5003;62652;42.274;-71.436;2023-06-14T03:58:00;24.17;22.60;12.03
64861;PMS5003;62652;42.274;-71.436;2023-06-14T03:59:00;21.63;20.43;11.57
64861;PMS5003;62652;42.274;-71.436;2023-06-14T04:00:00;21.60;19.93;11.07
64861;PMS5003;62652;42.274;-71.436;2023-06-14T04:01:00;23.00;21.03;12.10
64861;PMS5003;62652;42.274;-71.436;2023-06-14T04:02:00;22.07;19.83;10.90
64861;PMS5003;62652;42.274;-71.436;2023-06-14T04:03:00;16.03;15.97;9.63
64861;PMS5003;62652;42.274;-71.436;2023-06-14T04:04:00;21.03;20.43;11.43
64861;PMS5003;62652;42.274;-71.436;2023-06-14T04:05:00;20.03;18.33;10.87
64861;PMS5003;62652;42.274;-71.436;2023-06-14T04:06:00;21.27;19.03;10.93
64861;PMS5003;62652;42.274;-71.436;2023-06-14T04:07:00;19.10;18.50;10.57
64861;PMS5003;62652;42.274;-71.436;2023-06-14T04:08:01;16.30;16.00;10.03
64861;PMS5003;62652;42.274;-71.436;2023-06-14T04:09:00;22.10;20.03;9.97
64861;PMS5003;62652;42.274;-71.436;2023-06-14T04:10:00;20.47;16.77;9.93
64861;PMS5003;62652;42.274;-71.436;2023-06-14T04:11:00;19.30;18.30;11.47
64861;PMS5003;62652;42.274;-71.436;2023-06-14T04:12:00;19.43;16.57;10.57
64861;PMS5003;62652;42.274;-71.436;2023-06-14T04:13:00;21.87;19.90;10.37
64861;PMS5003;62652;42.274;-71.436;2023-06-14T04:14:01;21.83;19.60;10.83
64861;PMS5003;62652;42.274;-71.436;2023-06-14T04:15:00;18.33;18.17;9.57
64861;PMS5003;62652;42.274;-71.436;2023-06-14T04:16:00;19.27;16.53;9.53
64861;PMS5003;62652;42.274;-71.436;2023-06-14T04:17:00;21.10;18.70;10.13
64861;PMS5003;62652;42.274;-71.436;2023-06-14T04:18:00;20.27;17.97;10.60
64861;PMS5003;62652;42.274;-71.436;2023-06-14T04:19:01;19.60;17.93;10.87
64861;PMS5003;62652;42.274;-71.436;2023-06-14T04:20:00;21.10;18.67;10.40
64861;PMS5003;62652;42.274;-71.436;2023-06-14T04:21:00;19.50;17.90;10.73
64861;PMS5003;62652;42.274;-71.436;2023-06-14T04:22:00;19.13;18.13;11.17
64861;PMS5003;62652;42.274;-71.436;2023-06-14T04:23:11;19.30;16.93;10.10
64861;PMS5003;62652;42.274;-71.436;2023-06-14T04:24:00;18.67;18.43;9.87
64861;PMS5003;62652;42.274;-71.436;2023-06-14T04:25:00;22.80;21.30;10.97
64861;PMS5003;62652;42.274;-71.436;2023-06-14T04:26:00;17.43;16.77;10.47
64861;PMS5003;62652;42.274;-71.436;2023-06-14T04:27:00;18.03;14.93;8.20
64861;PMS5003;62652;42.274;-71.436;2023-06-14T04:28:00;18.47;16.57;9.57
64861;PMS5003;62652;42.274;-71.436;2023-06-14T04:29:00;16.67;16.37;10.47
64861;PMS5003;62652;42.274;-71.436;2023-06-14T04:30:01;18.67;16.33;9.37
64861;PMS5003;62652;42.274;-71.436;2023-06-14T04:31:00;16.03;16.03;9.20
64861;PMS5003;62652;42.274;-71.436;2023-06-14T04:32:00;16.40;15.70;9.97
64861;PMS5003;62652;42.274;-71.436;2023-06-14T04:33:00;20.00;18.73;10.60
64861;PMS5003;62652;42.274;-71.436;2023-06-14T04:34:00;16.47;16.23;9.97
64861;PMS5003;62652;42.274;-71.436;2023-06-14T04:35:00;17.37;16.67;10.40
64861;PMS5003;62652;42.274;-71.436;2023-06-14T04:36:00;22.13;18.47;10.07
64861;PMS5003;62652;42.274;-71.436;2023-06-14T04:37:00;16.83;15.07;9.53
64861;PMS5003;62652;42.274;-71.436;2023-06-14T04:38:00;17.67;17.57;10.47
64861;PMS5003;62652;42.274;-71.436;2023-06-14T04:39:00;16.23;15.83;9.73
64861;PMS5003;62652;42.274;-71.436;2023-06-14T04:40:00;17.37;15.50;8.87
64861;PMS5003;62652;42.274;-71.436;2023-06-14T04:41:01;18.27;16.97;10.30
64861;PMS5003;62652;42.274;-71.436;2023-06-14T04:42:00;20.20;18.77;9.97
64861;PMS5003;62652;42.274;-71.436;2023-06-14T04:43:00;20.03;17.87;9.47
64861;PMS5003;62652;42.274;-71.436;2023-06-14T04:44:00;17.53;16.93;10.27
64861;PMS5003;62652;42.274;-71.436;2023-06-14T04:45:00;17.90;16.17;9.90
64861;PMS5003;62652;42.274;-71.436;2023-06-14T04:46:00;20.33;19.77;10.40
64861;PMS5003;62652;42.274;-71.436;2023-06-14T04:47:00;18.90;16.20;9.57
64861;PMS5003;62652;42.274;-71.436;2023-06-14T04:48:00;19.33;18.20;10.87
64861;PMS5003;62652;42.274;-71.436;2023-06-14T04:49:00;17.80;16.43;10.07
64861;PMS5003;62652;42.274;-71.436;2023-06-14T04:50:00;17.37;16.50;10.77
64861;PMS5003;62652;42.274;-71.436;2023-06-14T04:51:00;19.23;17.40;10.20
64861;PMS5003;62652;42.274;-71.436;2023-06-14T04:52:01;20.50;18.37;9.97
64861;PMS5003;62652;42.274;-71.436;2023-06-14T04:53:00;19.63;16.50;9.83
64861;PMS5003;62652;42.274;-71.436;2023-06-14T04:54:00;18.10;17.00;11.50
64861;PMS5003;62652;42.274;-71.436;2023-06-14T04:55:00;19.33;18.80;10.50
64861;PMS5003;62652;42.274;-71.436;2023-06-14T04:56:00;17.33;17.03;10.87
64861;PMS5003;62652;42.274;-71.436;2023-06-14T04:57:00;18.97;17.23;10.30
64861;PMS5003;62652;42.274;-71.436;2023-06-14T04:58:00;15.40;14.63;9.17
64861;PMS5003;62652;42.274;-71.436;2023-06-14T04:59:00;20.10;18.17;10.13
64861;PMS5003;62652;42.274;-71.436;2023-06-14T05:00:00;19.10;17.50;11.00
64861;PMS5003;62652;42.274;-71.436;2023-06-14T05:01:00;19.27;18.83;10.90
64861;PMS5003;62652;42.274;-71.436;2023-06-14T05:02:00;20.43;17.40;9.97
64861;PMS5003;62652;42.274;-71.436;2023-06-14T05:03:01;19.50;17.83;10.07
64861;PMS5003;62652;42.274;-71.436;2023-06-14T05:04:00;16.70;16.13;9.63
64861;PMS5003;62652;42.274;-71.436;2023-06-14T05:05:00;18.70;17.43;10.27
64861;PMS5003;62652;42.274;-71.436;2023-06-14T05:06:00;17.60;16.77;11.47
64861;PMS5003;62652;42.274;-71.436;2023-06-14T05:07:00;19.40;18.03;10.23
64861;PMS5003;62652;42.274;-71.436;2023-06-14T05:08:00;18.63;17.70;11.37
64861;PMS5003;62652;42.274;-71.436;2023-06-14T05:09:00;18.97;16.97;9.30
64861;PMS5003;62652;42.274;-71.436;2023-06-14T05:10:00;17.73;17.17;9.83
64861;PMS5003;62652;42.274;-71.436;2023-06-14T05:11:00;16.47;14.80;10.00
64861;PMS5003;62652;42.274;-71.436;2023-06-14T05:12:00;15.03;14.60;8.77
64861;PMS5003;62652;42.274;-71.436;2023-06-14T05:13:00;20.80;17.40;10.00
64861;PMS5003;62652;42.274;-71.436;2023-06-14T05:14:00;19.00;15.97;8.73
64861;PMS5003;62652;42.274;-71.436;2023-06-14T05:15:00;19.03;17.87;9.50
64861;PMS5003;62652;42.274;-71.436;2023-06-14T05:16:00;16.90;14.70;9.67
64861;PMS5003;62652;42.274;-71.436;2023-06-14T05:17:00;18.73;16.57;10.60
64861;PMS5003;62652;42.274;-71.436;2023-06-14T05:18:00;18.17;15.80;9.33
64861;PMS5003;62652;42.274;-71.436;2023-06-14T05:19:00;18.40;17.47;9.97
64861;PMS5003;62652;42.274;-71.436;2023-06-14T05:20:00;15.93;15.03;9.13
64861;PMS5003;62652;42.274;-71.436;2023-06-14T05:21:00;16.93;16.07;10.20
64861;PMS5003;62652;42.274;-71.436;2023-06-14T05:22:00;15.00;14.90;9.17
64861;PMS5003;62652;42.274;-71.436;2023-06-14T05:23:00;18.00;15.17;10.10
64861;PMS5003;62652;42.274;-71.436;2023-06-14T05:24:00;16.73;14.73;8.80
64861;PMS5003;62652;42.274;-71.436;2023-06-14T05:25:00;16.10;15.17;8.97
64861;PMS5003;62652;42.274;-71.436;2023-06-14T05:26:00;17.93;16.67;8.93
64861;PMS5003;62652;42.274;-71.436;2023-06-14T05:27:00;17.80;16.10;9.00